Decoded Metar for LFPG (PARIS CHARLES DE GAULLE in FRANCE) (IATA:CDG) | Meteo·Mobile Aviation Weather
aviador You're here:

LFPG Decoded Metar

PARIS CHARLES DE GAULLE in FRANCE
Report Time2018-11-12 21:30:00
UTC Time2018-11-12 22:02:51
Flight Rules vfr VFR
Wind180° at 10 kt
W.Decomp.*RWY 26: 1.9 kt HW 9.8 kt LCW
RWY 27: 0.2 kt HW 10 kt LCW
W.Rank180° ranks 12
Current wind is above 180° avg. (8.0)
Visibility8000 m
Phenomena:N/A
Clouds:Few 005 Hf
Broken 140 Hf
Expected CloudBase > 400 ft AGL from Temp-Dew spread
Ceiling14,000 ft
Temp10°C (ISA -4)
Dew Point09°C (94% RH)
AAT6.2°C
QNH1019 hPa
Density Alt-203 ft
Elevation358 ft
Report Wrong Elevation
Raw Report
LFPG 122130Z 18010KT 8000 FEW005 BKN140 10/09 Q1019 NOSIG=

Extra information for LFPG:More info

Metar Taf Metar & Taf Last 4 Metars F.Rules Stats Wind Profile Meteogram Temp Stats Airport Information Weather charts Add Link Nearby VenuesMetar ALERT Operation Metar Decoded Social comments